createdAt,value
2023-08-27T00:00:34.245Z,100189.09
2023-08-27T00:03:03.165Z,100190.09
2023-08-27T00:05:33.345Z,100188.06
2023-08-27T00:08:02.574Z,100181.38
2023-08-27T00:10:31.583Z,100168.53
2023-08-27T00:13:00.291Z,100165.22
2023-08-27T00:15:29.012Z,100152.00
2023-08-27T00:17:58.100Z,100142.88
2023-08-27T00:20:26.899Z,100137.81
2023-08-27T00:22:57.138Z,100144.47
2023-08-27T00:25:25.977Z,100149.03
2023-08-27T00:27:54.491Z,100152.69
2023-08-27T00:30:23.611Z,100153.41
2023-08-27T00:32:52.057Z,100151.31
2023-08-27T00:35:20.965Z,100154.75
2023-08-27T00:37:49.883Z,100154.28
2023-08-27T00:40:20.155Z,100141.50
2023-08-27T00:42:48.753Z,100111.75
2023-08-27T00:45:17.277Z,100113.38
2023-08-27T00:47:45.877Z,100100.50
2023-08-27T00:50:14.554Z,100092.97
2023-08-27T00:52:43.857Z,100084.69
2023-08-27T00:55:12.469Z,100083.16
2023-08-27T00:57:43.390Z,100080.25
2023-08-27T01:00:13.134Z,100066.22
2023-08-27T01:02:43.991Z,100066.16
2023-08-27T01:05:13.872Z,100055.81
2023-08-27T01:07:51.554Z,100057.44
2023-08-27T01:10:45.590Z,100047.22
2023-08-27T01:13:22.576Z,100048.53
2023-08-27T01:15:59.540Z,100059.06
2023-08-27T01:18:28.919Z,100053.28
2023-08-27T01:20:58.883Z,100046.16
2023-08-27T01:23:28.870Z,100059.84
2023-08-27T01:25:58.290Z,100062.63
2023-08-27T01:28:34.209Z,100075.75
2023-08-27T01:31:09.025Z,100068.84
2023-08-27T01:33:39.054Z,100086.47
2023-08-27T01:36:08.699Z,100071.44
2023-08-27T01:38:38.764Z,100071.72
2023-08-27T01:41:27.263Z,100082.31
2023-08-27T01:43:57.582Z,100094.47
2023-08-27T01:46:26.119Z,100090.91
2023-08-27T01:49:17.242Z,100073.44
2023-08-27T01:51:46.097Z,100074.25
2023-08-27T01:54:16.172Z,100070.84
2023-08-27T01:56:44.778Z,100077.09
2023-08-27T01:59:13.641Z,100081.03
2023-08-27T02:01:42.250Z,100073.59
2023-08-27T02:04:10.862Z,100081.78
2023-08-27T02:06:39.547Z,100079.34
2023-08-27T02:09:08.494Z,100075.81
2023-08-27T02:11:38.609Z,100077.16
2023-08-27T02:14:07.118Z,100079.44
2023-08-27T02:16:37.146Z,100063.63
2023-08-27T02:19:08.396Z,100069.91
2023-08-27T02:21:37.059Z,100072.19
2023-08-27T02:24:06.482Z,100062.66
2023-08-27T02:26:38.641Z,100063.97
2023-08-27T02:29:07.363Z,100057.03
2023-08-27T02:31:37.238Z,100050.72
2023-08-27T02:34:06.255Z,100044.28
2023-08-27T02:36:36.282Z,100034.41
2023-08-27T02:39:05.734Z,100032.66
2023-08-27T02:41:39.632Z,100029.09
2023-08-27T02:44:14.104Z,100026.69
2023-08-27T02:46:46.008Z,100017.00
2023-08-27T02:49:19.853Z,100026.69
2023-08-27T02:51:48.729Z,100036.88
2023-08-27T02:54:17.233Z,100029.63
2023-08-27T02:56:45.785Z,100024.78
2023-08-27T02:59:15.607Z,100021.56
2023-08-27T03:02:04.294Z,100012.84
2023-08-27T03:04:34.198Z,100018.34
2023-08-27T03:07:02.754Z,100012.38
2023-08-27T03:09:31.203Z,100007.38
2023-08-27T03:11:59.744Z,100023.84
2023-08-27T03:14:29.761Z,100011.25
2023-08-27T03:16:58.386Z,100018.84
2023-08-27T03:19:27.292Z,100008.03
2023-08-27T03:21:56.149Z,100013.72
2023-08-27T03:24:24.749Z,100012.28
2023-08-27T03:26:54.776Z,100013.25
2023-08-27T03:29:23.713Z,100018.13
2023-08-27T03:31:53.916Z,100017.47
2023-08-27T03:34:42.385Z,100006.66
2023-08-27T03:37:11.166Z,100007.13
2023-08-27T03:39:39.608Z,100007.47
2023-08-27T03:42:08.138Z,100006.38
2023-08-27T03:44:37.958Z,99996.50
2023-08-27T03:47:07.954Z,99992.47
2023-08-27T03:49:36.660Z,100008.97
2023-08-27T03:52:06.062Z,100007.47
2023-08-27T03:54:34.606Z,100011.84
2023-08-27T03:57:03.095Z,100012.50
2023-08-27T03:59:32.779Z,100012.03
2023-08-27T04:02:03.733Z,100007.84
2023-08-27T04:04:41.800Z,100012.94
2023-08-27T04:07:11.009Z,100017.84
2023-08-27T04:09:40.160Z,100013.00
2023-08-27T04:12:09.291Z,100010.28
2023-08-27T04:14:39.774Z,100006.06
2023-08-27T04:17:08.875Z,100008.34
2023-08-27T04:19:41.467Z,100002.03
2023-08-27T04:22:09.993Z,100001.56
2023-08-27T04:24:38.781Z,99999.47
2023-08-27T04:27:08.565Z,100010.75
2023-08-27T04:29:37.635Z,100002.31
2023-08-27T04:32:08.112Z,100005.84
2023-08-27T04:34:37.002Z,100005.53
2023-08-27T04:37:07.053Z,100007.69
2023-08-27T04:39:35.604Z,100009.78
2023-08-27T04:42:07.063Z,100006.06
2023-08-27T04:44:37.379Z,99998.66
2023-08-27T04:47:06.637Z,99998.16
2023-08-27T04:49:35.241Z,100001.22
2023-08-27T04:52:07.339Z,99998.00
2023-08-27T04:54:41.495Z,100005.41
2023-08-27T04:57:10.028Z,100010.06
2023-08-27T04:59:38.952Z,100006.13
2023-08-27T05:02:10.754Z,100010.13
2023-08-27T05:04:40.701Z,100002.00
2023-08-27T05:07:09.485Z,100007.81
2023-08-27T05:09:38.206Z,99998.59
2023-08-27T05:12:09.263Z,99995.31
2023-08-27T05:14:38.141Z,99996.38
2023-08-27T05:17:06.938Z,99990.28
2023-08-27T05:19:35.771Z,99996.38
2023-08-27T05:22:06.858Z,99988.88
2023-08-27T05:24:36.132Z,99980.44
2023-08-27T05:27:05.196Z,99992.19
2023-08-27T05:29:35.117Z,99988.31
2023-08-27T05:32:05.312Z,99984.16
2023-08-27T05:34:34.052Z,99994.63
2023-08-27T05:37:03.361Z,99993.06
2023-08-27T05:39:32.802Z,99989.88
2023-08-27T05:42:02.218Z,99992.56
2023-08-27T05:44:33.617Z,99995.31
2023-08-27T05:47:03.572Z,99999.78
2023-08-27T05:49:32.223Z,99990.16
2023-08-27T05:52:02.435Z,100000.97
2023-08-27T05:54:31.345Z,100011.28
2023-08-27T05:57:00.429Z,100012.47
2023-08-27T05:59:29.083Z,100024.19
2023-08-27T06:01:59.338Z,100021.41
2023-08-27T06:04:31.387Z,100028.53
2023-08-27T06:07:03.428Z,100034.19
2023-08-27T06:09:32.035Z,100035.00
2023-08-27T06:12:00.733Z,100035.00
2023-08-27T06:14:29.200Z,100033.69
2023-08-27T06:16:57.694Z,100038.97
2023-08-27T06:19:36.150Z,100022.78
2023-08-27T06:22:16.842Z,100020.72
2023-08-27T06:25:03.608Z,100040.69
2023-08-27T06:27:32.813Z,100043.31
2023-08-27T06:30:10.670Z,100035.28
2023-08-27T06:32:39.579Z,100029.66
2023-08-27T06:35:10.251Z,100028.63
2023-08-27T06:37:40.080Z,100016.56
2023-08-27T06:40:09.622Z,100018.09
2023-08-27T06:42:38.141Z,100023.13
2023-08-27T06:45:07.772Z,100034.28
2023-08-27T06:47:36.512Z,100044.41
2023-08-27T06:50:06.240Z,100051.72
2023-08-27T06:52:35.067Z,100046.44
2023-08-27T06:55:05.580Z,100053.53
2023-08-27T06:57:35.009Z,100057.63
2023-08-27T07:00:18.292Z,100061.91
2023-08-27T07:02:47.286Z,100056.41
2023-08-27T07:05:32.305Z,100063.91
2023-08-27T07:08:01.078Z,100068.50
2023-08-27T07:10:32.205Z,100059.28
2023-08-27T07:13:03.108Z,100059.31
2023-08-27T07:15:31.673Z,100063.41
2023-08-27T07:18:00.724Z,100064.31
2023-08-27T07:20:30.730Z,100072.16
2023-08-27T07:23:01.774Z,100063.75
2023-08-27T07:25:32.017Z,100069.16
2023-08-27T07:28:00.761Z,100073.16
2023-08-27T07:30:29.637Z,100064.44
2023-08-27T07:32:58.225Z,100059.63
2023-08-27T07:35:27.095Z,100053.34
2023-08-27T07:37:55.569Z,100062.53
2023-08-27T07:40:25.071Z,100065.72
2023-08-27T07:42:55.462Z,100056.28
2023-08-27T07:45:23.987Z,100059.38
2023-08-27T07:47:52.615Z,100048.00
2023-08-27T07:50:21.466Z,100051.81
2023-08-27T07:52:51.095Z,100039.31
2023-08-27T07:55:20.118Z,100042.44
2023-08-27T07:57:48.632Z,100039.38
2023-08-27T08:00:20.583Z,100044.50
2023-08-27T08:03:01.343Z,100046.28
2023-08-27T08:05:35.895Z,100053.84
2023-08-27T08:08:05.598Z,100045.38
2023-08-27T08:10:34.206Z,100051.53
2023-08-27T08:13:02.728Z,100055.50
2023-08-27T08:15:34.078Z,100048.63
2023-08-27T08:18:03.659Z,100053.34
2023-08-27T08:20:32.463Z,100046.44
2023-08-27T08:23:05.779Z,100057.84
2023-08-27T08:25:34.633Z,100055.34
2023-08-27T08:28:04.339Z,100066.34
2023-08-27T08:30:34.493Z,100071.09
2023-08-27T08:33:03.978Z,100060.97
2023-08-27T08:35:34.026Z,100062.47
2023-08-27T08:38:02.772Z,100066.03
2023-08-27T08:40:32.526Z,100059.00
2023-08-27T08:43:01.451Z,100063.38
2023-08-27T08:45:39.583Z,100057.53
2023-08-27T08:48:08.749Z,100063.53
2023-08-27T08:50:37.993Z,100060.56
2023-08-27T08:53:15.376Z,100051.00
2023-08-27T08:55:50.697Z,100054.69
2023-08-27T08:58:55.119Z,100061.13
2023-08-27T09:01:27.596Z,100062.28
2023-08-27T09:03:57.547Z,100060.41
2023-08-27T09:06:27.465Z,100064.72
2023-08-27T09:08:57.928Z,100051.75
2023-08-27T09:11:27.717Z,100053.13
2023-08-27T09:13:59.188Z,100057.53
2023-08-27T09:16:50.681Z,100062.16
2023-08-27T09:19:19.516Z,100061.53
2023-08-27T09:21:48.297Z,100061.38
2023-08-27T09:24:17.558Z,100076.19
2023-08-27T09:26:46.057Z,100076.31
2023-08-27T09:29:15.774Z,100067.28
2023-08-27T09:31:46.113Z,100064.34
2023-08-27T09:34:17.515Z,100061.06
2023-08-27T09:36:46.044Z,100056.09
2023-08-27T09:39:14.963Z,100059.06
2023-08-27T09:41:45.593Z,100066.34
2023-08-27T09:44:16.374Z,100042.16
2023-08-27T09:46:45.081Z,100040.91
2023-08-27T09:49:13.532Z,100039.59
2023-08-27T09:51:43.871Z,100030.28
2023-08-27T09:54:16.845Z,100029.19
2023-08-27T09:56:47.381Z,100030.22
2023-08-27T09:59:18.133Z,100020.56
2023-08-27T10:01:50.374Z,100021.09
2023-08-27T10:04:20.486Z,100012.88
2023-08-27T10:06:50.666Z,100010.34
2023-08-27T10:09:21.788Z,100002.41
2023-08-27T10:11:51.574Z,99997.13
2023-08-27T10:14:21.891Z,99997.88
2023-08-27T10:16:50.587Z,99991.94
2023-08-27T10:19:19.690Z,99982.19
2023-08-27T10:21:49.033Z,99975.63
2023-08-27T10:24:20.280Z,99978.56
2023-08-27T10:26:51.886Z,99980.31
2023-08-27T10:29:25.518Z,99979.66
2023-08-27T10:31:57.225Z,99975.16
2023-08-27T10:34:29.445Z,99984.78
2023-08-27T10:37:03.847Z,99974.22
2023-08-27T10:39:35.966Z,99967.97
2023-08-27T10:42:05.230Z,99977.88
2023-08-27T10:44:34.806Z,99965.41
2023-08-27T10:47:11.011Z,99973.97
2023-08-27T10:49:41.370Z,99957.69
2023-08-27T10:52:17.154Z,99972.59
2023-08-27T10:54:50.989Z,99970.19
2023-08-27T10:57:23.679Z,99971.81
2023-08-27T10:59:53.889Z,99970.56
2023-08-27T11:02:22.552Z,99967.22
2023-08-27T11:04:53.130Z,99975.63
2023-08-27T11:07:24.112Z,99976.56
2023-08-27T11:09:56.239Z,99976.72
2023-08-27T11:12:26.622Z,99972.06
2023-08-27T11:14:57.450Z,99962.97
2023-08-27T11:17:48.912Z,99961.66
2023-08-27T11:20:24.219Z,99963.06
2023-08-27T11:22:57.848Z,99963.84
2023-08-27T11:25:30.991Z,99968.59
2023-08-27T11:28:01.780Z,99962.56
2023-08-27T11:30:31.528Z,99960.13
2023-08-27T11:33:03.573Z,99944.75
2023-08-27T11:35:32.623Z,99941.38
2023-08-27T11:38:01.499Z,99937.88
2023-08-27T11:40:32.798Z,99946.34
2023-08-27T11:43:01.308Z,99945.78
2023-08-27T11:45:33.682Z,99947.25
2023-08-27T11:48:11.389Z,99958.25
2023-08-27T11:50:44.181Z,99954.03
2023-08-27T11:53:15.562Z,99954.50
2023-08-27T11:55:48.264Z,99944.31
2023-08-27T11:58:17.016Z,99945.81
2023-08-27T12:00:50.039Z,99949.63
2023-08-27T12:03:19.069Z,99940.03
2023-08-27T12:05:47.639Z,99943.72
2023-08-27T12:08:16.582Z,99937.09
2023-08-27T12:10:46.098Z,99937.34
2023-08-27T12:13:16.776Z,99942.47
2023-08-27T12:15:45.737Z,99942.03
2023-08-27T12:18:14.631Z,99936.88
2023-08-27T12:20:43.433Z,99937.41
2023-08-27T12:23:13.209Z,99930.34
2023-08-27T12:25:49.263Z,99935.19
2023-08-27T12:28:35.189Z,99926.34
2023-08-27T12:31:03.873Z,99927.22
2023-08-27T12:33:40.924Z,99917.91
2023-08-27T12:36:10.330Z,99921.47
2023-08-27T12:38:39.637Z,99913.69
2023-08-27T12:41:08.100Z,99902.47
2023-08-27T12:43:39.217Z,99911.81
2023-08-27T12:46:10.809Z,99897.34
2023-08-27T12:48:39.432Z,99895.81
2023-08-27T12:51:07.991Z,99879.78
2023-08-27T12:53:36.528Z,99893.47
2023-08-27T12:56:07.781Z,99900.19
2023-08-27T12:58:37.979Z,99898.38
2023-08-27T13:01:06.472Z,99909.03
2023-08-27T13:03:35.062Z,99889.47
2023-08-27T13:06:03.618Z,99896.28
2023-08-27T13:08:35.943Z,99909.78
2023-08-27T13:11:04.690Z,99895.22
2023-08-27T13:13:33.254Z,99895.84
2023-08-27T13:16:03.372Z,99907.56
2023-08-27T13:18:31.887Z,99902.53
2023-08-27T13:21:00.637Z,99902.06
2023-08-27T13:23:29.353Z,99909.69
2023-08-27T13:25:58.142Z,99903.88
2023-08-27T13:28:28.743Z,99920.88
2023-08-27T13:31:03.584Z,99967.66
2023-08-27T13:33:33.513Z,99971.88
2023-08-27T13:36:02.128Z,99998.88
2023-08-27T13:38:31.098Z,99998.22
2023-08-27T13:41:00.099Z,100005.88
2023-08-27T13:43:28.725Z,100009.94
2023-08-27T13:45:57.389Z,100019.06
2023-08-27T13:48:27.047Z,100013.72
2023-08-27T13:50:58.292Z,100014.38
2023-08-27T13:53:26.967Z,100027.81
2023-08-27T13:55:56.086Z,100027.38
2023-08-27T13:58:35.614Z,100044.00
2023-08-27T14:01:05.031Z,100039.31
2023-08-27T14:06:05.129Z,100041.16
2023-08-27T14:08:37.543Z,100047.34
2023-08-27T14:11:08.160Z,100058.03
2023-08-27T14:13:39.579Z,100060.81
2023-08-27T14:16:10.214Z,100057.00
2023-08-27T14:18:39.521Z,100050.53
2023-08-27T14:21:10.463Z,100046.84
2023-08-27T14:23:40.253Z,100042.59
2023-08-27T14:26:12.091Z,100044.81
2023-08-27T14:28:41.135Z,100030.75
2023-08-27T14:31:09.771Z,100019.16
2023-08-27T14:33:38.343Z,100019.91
2023-08-27T14:36:07.284Z,100020.19
2023-08-27T14:38:37.732Z,100007.53
2023-08-27T14:41:09.304Z,100008.34
2023-08-27T14:43:38.076Z,100002.34
2023-08-27T14:46:10.139Z,100012.75
2023-08-27T14:48:41.414Z,100009.91
2023-08-27T14:51:10.245Z,100003.13
2023-08-27T14:53:40.146Z,100007.69
2023-08-27T14:56:08.698Z,100006.81
2023-08-27T14:58:37.275Z,100007.91
2023-08-27T15:01:11.184Z,100002.22
2023-08-27T15:03:39.964Z,100017.88
2023-08-27T15:06:08.511Z,100012.13
2023-08-27T15:08:40.075Z,100016.44
2023-08-27T15:11:11.877Z,100017.13
2023-08-27T15:13:40.659Z,100025.72
2023-08-27T15:16:09.296Z,100013.47
2023-08-27T15:18:38.102Z,100016.28
2023-08-27T15:21:06.570Z,100026.78
2023-08-27T15:23:35.451Z,100023.28
2023-08-27T15:26:05.588Z,100016.56
2023-08-27T15:28:34.296Z,100028.56
2023-08-27T15:31:04.221Z,100014.06
2023-08-27T15:33:44.230Z,100013.47
2023-08-27T15:36:13.183Z,100012.66
2023-08-27T15:38:43.298Z,100016.41
2023-08-27T15:41:19.738Z,100018.97
2023-08-27T15:43:48.824Z,100017.47
2023-08-27T15:46:17.580Z,100020.63
2023-08-27T15:48:46.186Z,100012.81
2023-08-27T15:51:14.889Z,100008.84
2023-08-27T15:53:43.422Z,100013.19
2023-08-27T15:56:15.193Z,100017.47
2023-08-27T15:58:47.354Z,100006.34
2023-08-27T16:01:16.678Z,100005.72
2023-08-27T16:03:46.030Z,100007.00
2023-08-27T16:06:14.919Z,100000.06
2023-08-27T16:08:45.603Z,100003.19
2023-08-27T16:11:14.389Z,100003.94
2023-08-27T16:13:43.108Z,100007.22
2023-08-27T16:16:13.795Z,100009.84
2023-08-27T16:18:42.622Z,100012.00
2023-08-27T16:21:12.881Z,100006.09
2023-08-27T16:23:41.621Z,100005.41
2023-08-27T16:26:10.197Z,100011.06
2023-08-27T16:28:38.861Z,100004.38
2023-08-27T16:31:07.538Z,100013.91
2023-08-27T16:33:37.408Z,100010.53
2023-08-27T16:36:06.272Z,100018.63
2023-08-27T16:38:34.820Z,100010.41
2023-08-27T16:41:03.345Z,100021.75
2023-08-27T16:43:31.955Z,100014.34
2023-08-27T16:46:00.559Z,100023.72
2023-08-27T16:48:29.162Z,100018.09
2023-08-27T16:51:00.416Z,100027.44
2023-08-27T16:53:29.032Z,100024.22
2023-08-27T16:55:57.585Z,100026.09
2023-08-27T16:58:26.137Z,100032.31
2023-08-27T17:00:54.705Z,100037.16
2023-08-27T17:03:23.507Z,100040.63
2023-08-27T17:05:57.302Z,100038.41
2023-08-27T17:08:28.299Z,100039.13
2023-08-27T17:10:57.116Z,100043.41
2023-08-27T17:13:25.716Z,100040.03
2023-08-27T17:16:08.440Z,100035.22
2023-08-27T17:18:37.285Z,100039.69
2023-08-27T17:21:06.092Z,100045.81
2023-08-27T17:23:38.097Z,100044.06
2023-08-27T17:26:06.779Z,100051.56
2023-08-27T17:28:35.596Z,100059.91
2023-08-27T17:31:04.179Z,100063.19
2023-08-27T17:33:32.706Z,100069.53
2023-08-27T17:36:01.234Z,100081.09
2023-08-27T17:38:30.851Z,100074.31
2023-08-27T17:41:01.042Z,100076.88
2023-08-27T17:43:29.724Z,100083.78
2023-08-27T17:45:58.451Z,100081.38
2023-08-27T17:48:27.014Z,100078.84
2023-08-27T17:50:55.813Z,100099.84
2023-08-27T17:53:24.828Z,100090.81
2023-08-27T17:55:54.432Z,100088.63
2023-08-27T17:58:25.143Z,100099.31
2023-08-27T18:00:55.422Z,100117.81
2023-08-27T18:03:26.657Z,100134.19
2023-08-27T18:05:57.780Z,100129.25
2023-08-27T18:08:26.269Z,100127.94
2023-08-27T18:10:54.835Z,100127.16
2023-08-27T18:13:25.327Z,100129.63
2023-08-27T18:15:58.803Z,100131.47
2023-08-27T18:18:28.772Z,100135.41
2023-08-27T18:20:57.591Z,100141.59
2023-08-27T18:23:26.129Z,100140.66
2023-08-27T18:25:54.600Z,100143.66
2023-08-27T18:28:24.433Z,100146.91
2023-08-27T18:30:56.871Z,100143.66
2023-08-27T18:33:25.744Z,100143.06
2023-08-27T18:35:54.531Z,100149.72
2023-08-27T18:38:23.271Z,100140.19
2023-08-27T18:40:55.112Z,100142.22
2023-08-27T18:43:25.269Z,100140.63
2023-08-27T18:45:56.286Z,100140.38
2023-08-27T18:48:24.870Z,100144.50
2023-08-27T18:50:53.357Z,100148.06
2023-08-27T18:53:22.062Z,100147.00
2023-08-27T18:55:51.573Z,100149.03
2023-08-27T18:58:20.419Z,100159.34
2023-08-27T19:01:04.707Z,100162.53
2023-08-27T19:03:33.399Z,100175.31
2023-08-27T19:06:01.860Z,100163.78
2023-08-27T19:08:31.874Z,100166.06
2023-08-27T19:11:01.192Z,100169.25
2023-08-27T19:13:31.368Z,100173.22
2023-08-27T19:16:00.345Z,100177.28
2023-08-27T19:18:30.196Z,100175.53
2023-08-27T19:21:02.221Z,100178.47
2023-08-27T19:23:32.763Z,100184.38
2023-08-27T19:26:07.862Z,100185.03
2023-08-27T19:28:44.518Z,100186.31
2023-08-27T19:31:17.972Z,100192.19
2023-08-27T19:33:48.079Z,100205.28
2023-08-27T19:36:16.611Z,100198.31
2023-08-27T19:38:46.241Z,100208.38
2023-08-27T19:41:14.937Z,100196.34
2023-08-27T19:43:44.238Z,100203.97
2023-08-27T19:46:15.403Z,100196.88
2023-08-27T19:48:44.043Z,100204.16
2023-08-27T19:51:14.102Z,100201.59
2023-08-27T19:53:43.257Z,100198.38
2023-08-27T19:56:22.380Z,100208.84
2023-08-27T19:58:51.118Z,100207.88
2023-08-27T20:01:19.858Z,100207.38
2023-08-27T20:03:48.670Z,100207.09
2023-08-27T20:06:18.575Z,100217.94
2023-08-27T20:08:47.286Z,100214.56
2023-08-27T20:11:15.806Z,100211.03
2023-08-27T20:13:46.780Z,100214.56
2023-08-27T20:16:15.477Z,100211.34
2023-08-27T20:18:44.281Z,100210.22
2023-08-27T20:21:12.968Z,100215.53
2023-08-27T20:23:43.092Z,100220.06
2023-08-27T20:26:11.631Z,100223.47
2023-08-27T20:28:40.440Z,100227.81
2023-08-27T20:31:10.536Z,100234.94
2023-08-27T20:33:39.507Z,100230.25
2023-08-27T20:36:08.539Z,100235.41
2023-08-27T20:38:39.920Z,100237.19
2023-08-27T20:41:10.105Z,100231.53
2023-08-27T20:43:40.308Z,100236.22
2023-08-27T20:46:09.604Z,100239.94
2023-08-27T20:48:38.157Z,100239.75
2023-08-27T20:51:06.818Z,100233.34
2023-08-27T20:53:37.360Z,100238.34
2023-08-27T20:56:06.156Z,100240.09
2023-08-27T20:58:36.284Z,100246.56
2023-08-27T21:01:06.245Z,100249.94
2023-08-27T21:03:35.793Z,100246.88
2023-08-27T21:06:05.756Z,100249.63
2023-08-27T21:08:35.409Z,100254.31
2023-08-27T21:11:09.336Z,100252.03
2023-08-27T21:13:40.761Z,100259.47
2023-08-27T21:16:09.599Z,100260.91
2023-08-27T21:18:38.247Z,100266.09
2023-08-27T21:21:06.768Z,100266.09
2023-08-27T21:23:36.341Z,100276.13
2023-08-27T21:26:05.163Z,100269.03
2023-08-27T21:28:34.653Z,100271.44
2023-08-27T21:31:25.467Z,100274.16
2023-08-27T21:33:54.683Z,100277.56
2023-08-27T21:36:23.327Z,100278.97
2023-08-27T21:39:09.113Z,100282.38
2023-08-27T21:41:39.662Z,100291.59
2023-08-27T21:44:08.642Z,100291.41
2023-08-27T21:46:42.131Z,100289.78
2023-08-27T21:49:12.604Z,100286.22
2023-08-27T21:51:41.307Z,100293.16
2023-08-27T21:54:10.076Z,100298.00
2023-08-27T21:56:38.584Z,100285.56
2023-08-27T21:59:08.302Z,100292.84
2023-08-27T22:01:37.553Z,100295.75
2023-08-27T22:04:08.095Z,100300.06
2023-08-27T22:06:36.639Z,100310.22
2023-08-27T22:09:06.950Z,100307.88
2023-08-27T22:11:35.576Z,100312.06
2023-08-27T22:14:04.472Z,100314.03
2023-08-27T22:16:33.282Z,100303.38
2023-08-27T22:19:13.113Z,100301.75
2023-08-27T22:21:51.030Z,100298.00
2023-08-27T22:24:19.583Z,100292.97
2023-08-27T22:26:48.134Z,100290.03
2023-08-27T22:29:16.764Z,100283.91
2023-08-27T22:31:45.923Z,100284.06
2023-08-27T22:34:15.304Z,100288.75
2023-08-27T22:36:44.172Z,100293.91
2023-08-27T22:39:14.397Z,100290.19
2023-08-27T22:41:43.522Z,100291.44
2023-08-27T22:44:13.143Z,100298.34
2023-08-27T22:46:42.180Z,100288.69
2023-08-27T22:49:10.874Z,100274.66
2023-08-27T22:51:39.482Z,100272.25
2023-08-27T22:54:09.003Z,100269.94
2023-08-27T22:56:38.958Z,100267.16
2023-08-27T22:59:07.557Z,100267.66
2023-08-27T23:01:36.550Z,100279.28
2023-08-27T23:04:06.050Z,100275.69
2023-08-27T23:06:34.796Z,100292.34
2023-08-27T23:09:03.556Z,100290.41
2023-08-27T23:11:33.136Z,100288.78
2023-08-27T23:14:03.089Z,100278.63
2023-08-27T23:16:31.760Z,100272.03
2023-08-27T23:19:00.530Z,100264.72
2023-08-27T23:21:29.049Z,100268.91
2023-08-27T23:23:57.786Z,100271.19
2023-08-27T23:26:26.827Z,100263.59
2023-08-27T23:28:55.622Z,100271.69
2023-08-27T23:31:26.190Z,100258.78
2023-08-27T23:33:55.316Z,100266.97
2023-08-27T23:36:26.772Z,100265.97
2023-08-27T23:38:55.336Z,100268.81
2023-08-27T23:41:23.903Z,100284.09
2023-08-27T23:43:52.579Z,100289.56
2023-08-27T23:46:21.277Z,100280.41
2023-08-27T23:48:51.497Z,100289.63
2023-08-27T23:51:20.934Z,100289.75
2023-08-27T23:53:49.409Z,100292.97
2023-08-27T23:56:17.999Z,100290.22
2023-08-27T23:58:46.580Z,100285.34
